Terminal Aerodrome Forecast
Issued by NWS

Home | Current Version | Previous Version | Text Only | Print | Product List | Glossary On
Versions: 1 2 3 4 5 6 7 8 9 10 11 12 13 14 15 16 17 18 19 20 21 22 23 24 25 26 27 28 29 30 31
000
FTUS46 KOTX 251200 CCA
TAFSFF
TAF COR
KSFF 251200Z 2512/2612 VRB05KT P6SM VCTS SCT040 BKN060CB OVC150
      TEMPO 2512/2513 3SM +RA SCT030 BKN050 OVC070
     FM251400 22005KT P6SM VCSH BKN035 OVC150
     FM251900 23006G13KT P6SM VCTS SCT050CB BKN070
     FM260200 VRB03KT P6SM VCSH BKN070 OVC150=

USA.gov is the U.S. government's official web portal to all federal, state and local government web resources and services.